Etusivu
METAR-TAF:

METAR-TAF

Lentoasemat :

Kokkola, Suomi

Kokkola-Pietarsaaren lentoasema

Leveyspiiri: 63-43N, Pituuspiiri: 023-09E, korkeus merenpinnasta: 25 m

Tämänhetkinen sää

Tämä raportti tehtiin 26 minuuttia sitten, kello 15.20 UTC
Tuuli 6 kn idästä
Lämpötila 12°C
Kosteus 88%
Ilmanpaine 1030 hPa
Näkyvyys 10 km tai enemmän
Hajonneita pilviä 3600 ft:n korkeudessa
Pilvistä 4100 ft:n korkeudessa

METAR: EFKK 211520Z 10006KT 9999 BKN036 OVC041 12/10 Q1030

Aika: 18:46 (15:46 UTC)

Sääennuste

Tämä raportti tehtiin 1 tunti ja 18 minuuttia sitten, kello 14.28 UTC
Ennuste voimassa 21. päivästä klo 15 UTC - 21. päivään klo 23 UTC
Tuuli 8 kn idästä
Näkyvyys 10 km tai enemmän
Hajonneita pilviä 3000 ft:n korkeudessa
Todennäköisyys 40%
21. päivästä klo 17 UTC - 21. päivään klo 23 UTC
Hajonneita pilviä 1000 ft:n korkeudessa

TAF: EFKK 211428Z 2115/2123 10008KT 9999 BKN030 PROB40 2117/2123 BKN010

Säähavainnot ja -ennusteet yli 4000 lentoasemalta (METAR- ja TAF-raportit).

Käytössä olevat sääasemat on merkitty karttaan keltaisilla ja punaisilla pisteillä.

Aseta hiiri pisteen päälle nähdäksesi sääaseman nimen.

Klikkaa sitten nähdäksesi säähavainnot ja -ennusteet.

Kartan vaihtaminen: klikkaa mustalla rastilla varustettuja vihreitä pisteitä, niin voit zoomata sisään; viivalla varustettua vihreää pistettä, niin voit zoomata ulos tai vihreitä nuolia, niin pääset viereisille kartoille.


METAR-TAF: